createdAt,value
2023-11-17T00:01:58.957Z,2.65
2023-11-17T00:04:26.754Z,2.56
2023-11-17T00:06:54.350Z,2.54
2023-11-17T00:09:21.923Z,2.51
2023-11-17T00:11:49.351Z,2.46
2023-11-17T00:14:16.807Z,2.43
2023-11-17T00:16:44.359Z,2.41
2023-11-17T00:19:12.449Z,2.38
2023-11-17T00:21:40.022Z,2.35
2023-11-17T00:24:10.365Z,2.35
2023-11-17T00:26:37.886Z,2.37
2023-11-17T00:29:07.995Z,2.35
2023-11-17T00:31:35.565Z,2.27
2023-11-17T00:34:03.162Z,2.17
2023-11-17T00:36:30.793Z,2.08
2023-11-17T00:38:58.363Z,2.04
2023-11-17T00:41:30.717Z,2.09
2023-11-17T00:43:59.092Z,2.13
2023-11-17T00:46:27.086Z,2.07
2023-11-17T00:48:54.784Z,1.99
2023-11-17T00:51:23.101Z,1.92
2023-11-17T00:53:50.616Z,1.88
2023-11-17T00:56:19.515Z,1.85
2023-11-17T00:58:47.248Z,1.89
2023-11-17T01:01:15.030Z,1.91
2023-11-17T01:03:43.456Z,1.84
2023-11-17T01:06:11.120Z,1.75
2023-11-17T01:08:38.637Z,1.71
2023-11-17T01:11:06.956Z,1.70
2023-11-17T01:13:34.506Z,1.73
2023-11-17T01:16:02.138Z,1.74
2023-11-17T01:18:29.644Z,1.75
2023-11-17T01:20:57.338Z,1.75
2023-11-17T01:23:26.392Z,1.70
2023-11-17T01:25:53.914Z,1.65
2023-11-17T01:28:21.422Z,1.62
2023-11-17T01:30:49.191Z,1.65
2023-11-17T01:33:16.734Z,1.72
2023-11-17T01:35:45.120Z,1.77
2023-11-17T01:38:12.739Z,1.82
2023-11-17T01:40:40.618Z,1.84
2023-11-17T01:43:11.518Z,1.85
2023-11-17T01:45:40.965Z,1.91
2023-11-17T01:48:08.829Z,1.91
2023-11-17T01:50:36.828Z,1.98
2023-11-17T01:53:04.955Z,2.07
2023-11-17T01:55:32.445Z,2.07
2023-11-17T01:58:00.089Z,2.08
2023-11-17T02:00:27.720Z,2.10
2023-11-17T02:02:55.360Z,2.10
2023-11-17T02:05:25.550Z,2.09
2023-11-17T02:08:27.963Z,2.09
2023-11-17T02:11:13.206Z,2.16
2023-11-17T02:13:44.915Z,2.22
2023-11-17T02:16:13.167Z,2.18
2023-11-17T02:18:42.251Z,2.16
2023-11-17T02:21:09.727Z,2.18
2023-11-17T02:23:38.303Z,2.21
2023-11-17T02:26:29.664Z,2.19
2023-11-17T02:29:28.942Z,2.24
2023-11-17T02:32:00.211Z,2.32
2023-11-17T02:34:28.250Z,2.25
2023-11-17T02:36:55.810Z,2.15
2023-11-17T02:39:26.771Z,2.10
2023-11-17T02:41:59.100Z,2.04
2023-11-17T02:44:30.928Z,2.01
2023-11-17T02:47:04.433Z,2.07
2023-11-17T02:49:47.859Z,2.13
2023-11-17T02:52:27.676Z,2.10
2023-11-17T02:54:56.918Z,2.04
2023-11-17T02:57:25.677Z,2.00
2023-11-17T02:59:53.260Z,1.95
2023-11-17T03:02:22.996Z,1.94
2023-11-17T03:04:55.604Z,1.95
2023-11-17T03:07:23.514Z,2.04
2023-11-17T03:09:53.786Z,2.14
2023-11-17T03:12:21.691Z,2.22
2023-11-17T03:14:49.488Z,2.26
2023-11-17T03:17:17.004Z,2.26
2023-11-17T03:19:44.530Z,2.23
2023-11-17T03:22:15.305Z,2.15
2023-11-17T03:24:43.099Z,2.09
2023-11-17T03:27:12.706Z,2.03
2023-11-17T03:29:40.389Z,2.03
2023-11-17T03:32:09.040Z,2.04
2023-11-17T03:34:36.655Z,2.04
2023-11-17T03:37:05.174Z,2.06
2023-11-17T03:39:43.566Z,2.06
2023-11-17T03:42:12.406Z,2.05
2023-11-17T03:44:39.928Z,2.05
2023-11-17T03:47:08.377Z,2.04
2023-11-17T03:49:36.269Z,2.05
2023-11-17T03:52:04.553Z,2.07
2023-11-17T03:54:34.098Z,2.07
2023-11-17T03:57:03.090Z,2.08
2023-11-17T03:59:31.658Z,2.03
2023-11-17T04:02:00.268Z,1.98
2023-11-17T04:04:28.426Z,1.97
2023-11-17T04:06:59.022Z,1.97
2023-11-17T04:09:26.958Z,2.04
2023-11-17T04:11:55.009Z,2.15
2023-11-17T04:14:23.531Z,2.22
2023-11-17T04:16:51.724Z,2.24
2023-11-17T04:19:21.296Z,2.23
2023-11-17T04:21:51.265Z,2.24
2023-11-17T04:24:19.887Z,2.25
2023-11-17T04:26:47.889Z,2.18
2023-11-17T04:29:15.973Z,2.15
2023-11-17T04:31:43.639Z,2.17
2023-11-17T04:34:14.365Z,2.22
2023-11-17T04:36:42.069Z,2.20
2023-11-17T04:39:18.482Z,2.20
2023-11-17T04:41:46.710Z,2.22
2023-11-17T04:44:14.449Z,2.21
2023-11-17T04:46:41.968Z,2.22
2023-11-17T04:49:09.612Z,2.23
2023-11-17T04:51:37.210Z,2.19
2023-11-17T04:54:04.784Z,2.24
2023-11-17T04:56:32.601Z,2.33
2023-11-17T04:59:00.112Z,2.33
2023-11-17T05:01:27.704Z,2.33
2023-11-17T05:03:55.378Z,2.34
2023-11-17T05:06:24.603Z,2.32
2023-11-17T05:08:53.043Z,2.27
2023-11-17T05:11:22.771Z,2.20
2023-11-17T05:13:50.347Z,2.11
2023-11-17T05:16:17.952Z,2.10
2023-11-17T05:18:45.545Z,2.15
2023-11-17T05:21:14.737Z,2.14
2023-11-17T05:23:42.889Z,2.11
2023-11-17T05:26:10.695Z,2.10
2023-11-17T05:28:38.449Z,2.10
2023-11-17T05:31:06.419Z,2.10
2023-11-17T05:33:34.756Z,2.09
2023-11-17T05:36:03.250Z,2.07
2023-11-17T05:38:30.679Z,2.11
2023-11-17T05:40:58.396Z,2.15
2023-11-17T05:43:25.849Z,2.17
2023-11-17T05:45:55.253Z,2.15
2023-11-17T05:48:22.865Z,2.14
2023-11-17T05:50:50.241Z,2.17
2023-11-17T05:53:17.707Z,2.19
2023-11-17T05:55:45.932Z,2.22
2023-11-17T05:58:13.489Z,2.25
2023-11-17T06:00:41.124Z,2.27
2023-11-17T06:03:08.677Z,2.35
2023-11-17T06:05:36.894Z,2.44
2023-11-17T06:08:05.150Z,2.44
2023-11-17T06:10:32.883Z,2.45
2023-11-17T06:13:00.539Z,2.49
2023-11-17T06:15:28.961Z,2.50
2023-11-17T06:17:57.712Z,2.51
2023-11-17T06:20:27.110Z,2.49
2023-11-17T06:22:54.610Z,2.48
2023-11-17T06:25:22.168Z,2.50
2023-11-17T06:27:51.186Z,2.50
2023-11-17T06:30:19.174Z,2.58
2023-11-17T06:32:46.814Z,2.68
2023-11-17T06:35:16.162Z,2.68
2023-11-17T06:37:43.675Z,2.68
2023-11-17T06:40:12.153Z,2.68
2023-11-17T06:42:42.526Z,2.67
2023-11-17T06:45:13.325Z,2.68
2023-11-17T06:47:44.893Z,2.69
2023-11-17T06:50:13.252Z,2.64
2023-11-17T06:52:41.873Z,2.61
2023-11-17T06:55:10.816Z,2.60
2023-11-17T06:57:38.830Z,2.66
2023-11-17T07:00:11.512Z,2.65
2023-11-17T07:02:41.912Z,2.66
2023-11-17T07:05:12.209Z,2.67
2023-11-17T07:07:41.107Z,2.63
2023-11-17T07:10:16.235Z,2.62
2023-11-17T07:12:44.224Z,2.65
2023-11-17T07:15:15.032Z,2.67
2023-11-17T07:17:43.825Z,2.68
2023-11-17T07:20:12.798Z,2.74
2023-11-17T07:22:41.039Z,2.81
2023-11-17T07:25:12.431Z,2.84
2023-11-17T07:27:40.917Z,2.87
2023-11-17T07:30:15.289Z,2.85
2023-11-17T07:32:44.871Z,2.82
2023-11-17T07:35:13.909Z,2.84
2023-11-17T07:37:41.484Z,2.85
2023-11-17T07:40:11.273Z,2.80
2023-11-17T07:42:41.176Z,2.77
2023-11-17T07:45:12.460Z,2.73
2023-11-17T07:47:43.198Z,2.66
2023-11-17T07:50:15.636Z,2.70
2023-11-17T07:52:44.897Z,2.75
2023-11-17T07:55:15.929Z,2.77
2023-11-17T07:57:43.725Z,2.79
2023-11-17T08:00:32.568Z,2.82
2023-11-17T08:03:00.779Z,2.85
2023-11-17T08:05:30.948Z,2.75
2023-11-17T08:07:58.949Z,2.77
2023-11-17T08:10:29.667Z,2.80
2023-11-17T08:12:57.242Z,2.90
2023-11-17T08:15:25.091Z,2.95
2023-11-17T08:17:52.628Z,2.94
2023-11-17T08:20:22.681Z,2.95
2023-11-17T08:22:50.212Z,2.99
2023-11-17T08:25:17.775Z,3.03
2023-11-17T08:27:45.344Z,2.99
2023-11-17T08:30:13.728Z,2.97
2023-11-17T08:32:41.251Z,2.99
2023-11-17T08:35:10.420Z,3.04
2023-11-17T08:37:38.821Z,3.12
2023-11-17T08:40:09.930Z,3.20
2023-11-17T08:42:38.733Z,3.22
2023-11-17T08:45:10.156Z,3.27
2023-11-17T08:47:38.184Z,3.30
2023-11-17T08:50:09.896Z,3.28
2023-11-17T08:52:42.218Z,3.24
2023-11-17T08:55:11.439Z,3.24
2023-11-17T08:57:39.206Z,3.23
2023-11-17T09:00:19.762Z,3.24
2023-11-17T09:02:47.632Z,3.28
2023-11-17T09:05:15.193Z,3.35
2023-11-17T09:07:44.156Z,3.43
2023-11-17T09:10:15.680Z,3.42
2023-11-17T09:12:48.765Z,3.53
2023-11-17T09:15:18.301Z,3.54
2023-11-17T09:17:49.029Z,3.55
2023-11-17T09:20:19.174Z,3.56
2023-11-17T09:22:47.268Z,3.58
2023-11-17T09:25:15.467Z,3.52
2023-11-17T09:27:52.939Z,3.49
2023-11-17T09:30:20.431Z,3.45
2023-11-17T09:32:56.462Z,3.37
2023-11-17T09:35:27.429Z,3.28
2023-11-17T09:38:02.674Z,3.23
2023-11-17T09:40:31.899Z,3.23
2023-11-17T09:43:24.782Z,3.24
2023-11-17T09:45:52.927Z,3.18
2023-11-17T09:48:20.580Z,3.08
2023-11-17T09:50:52.631Z,2.99
2023-11-17T09:53:20.792Z,2.96
2023-11-17T09:55:49.659Z,2.86
2023-11-17T09:58:17.351Z,2.90
2023-11-17T10:00:47.212Z,2.86
2023-11-17T10:03:15.483Z,2.84
2023-11-17T10:05:43.794Z,2.86
2023-11-17T10:08:15.927Z,2.94
2023-11-17T10:10:45.817Z,3.05
2023-11-17T10:13:13.895Z,3.10
2023-11-17T10:15:45.498Z,3.10
2023-11-17T10:18:26.091Z,3.05
2023-11-17T10:20:55.329Z,2.98
2023-11-17T10:23:22.959Z,2.94
2023-11-17T10:25:57.436Z,2.89
2023-11-17T10:28:26.674Z,2.78
2023-11-17T10:30:57.810Z,2.72
2023-11-17T10:33:32.258Z,2.73
2023-11-17T10:36:04.384Z,2.80
2023-11-17T10:38:36.670Z,2.81
2023-11-17T10:41:44.046Z,2.87
2023-11-17T10:44:15.387Z,2.99
2023-11-17T10:46:46.138Z,3.07
2023-11-17T10:49:16.913Z,3.17
2023-11-17T10:51:48.063Z,3.24
2023-11-17T10:54:15.865Z,3.30
2023-11-17T10:56:51.576Z,3.34
2023-11-17T10:59:22.129Z,3.43
2023-11-17T11:01:51.489Z,3.55
2023-11-17T11:04:27.515Z,3.60
2023-11-17T11:06:56.498Z,3.67
2023-11-17T11:09:37.195Z,3.75
2023-11-17T11:12:13.071Z,3.83
2023-11-17T11:14:42.247Z,3.89
2023-11-17T11:17:11.558Z,3.91
2023-11-17T11:19:52.768Z,3.92
2023-11-17T11:22:30.240Z,3.86
2023-11-17T11:24:58.264Z,3.82
2023-11-17T11:27:25.831Z,3.79
2023-11-17T11:29:54.268Z,3.81
2023-11-17T11:32:22.060Z,3.86
2023-11-17T11:34:51.175Z,3.93
2023-11-17T11:37:20.304Z,3.94
2023-11-17T11:39:47.936Z,3.94
2023-11-17T11:42:15.631Z,3.95
2023-11-17T11:44:43.382Z,3.94
2023-11-17T11:50:08.178Z,4.01
2023-11-17T11:53:19.676Z,3.96
2023-11-17T12:00:14.660Z,3.80
2023-11-17T12:02:56.189Z,3.85
2023-11-17T12:05:24.660Z,3.86
2023-11-17T12:07:53.469Z,3.86
2023-11-17T12:10:21.192Z,3.88
2023-11-17T12:12:56.605Z,3.85
2023-11-17T12:15:24.139Z,3.80
2023-11-17T12:17:59.474Z,3.76
2023-11-17T12:20:28.913Z,3.77
2023-11-17T12:23:00.795Z,3.76
2023-11-17T12:25:32.028Z,3.75
2023-11-17T12:28:00.262Z,3.79
2023-11-17T12:30:28.518Z,3.81
2023-11-17T12:32:58.634Z,3.85
2023-11-17T12:35:31.523Z,3.88
2023-11-17T12:37:59.236Z,3.88
2023-11-17T12:40:29.816Z,3.89
2023-11-17T12:42:59.261Z,3.95
2023-11-17T12:45:29.749Z,4.00
2023-11-17T12:48:01.811Z,4.04
2023-11-17T12:50:42.209Z,4.08
2023-11-17T12:53:11.407Z,4.18
2023-11-17T12:55:47.428Z,4.24
2023-11-17T12:58:15.252Z,4.24
2023-11-17T13:00:43.068Z,4.25
2023-11-17T13:03:10.647Z,4.21
2023-11-17T13:05:38.351Z,4.20
2023-11-17T13:08:05.876Z,4.17
2023-11-17T13:10:33.843Z,4.12
2023-11-17T13:13:07.362Z,4.06
2023-11-17T13:15:35.054Z,4.03
2023-11-17T13:18:02.692Z,4.01
2023-11-17T13:20:31.872Z,3.94
2023-11-17T13:22:59.544Z,3.95
2023-11-17T13:25:27.697Z,3.93
2023-11-17T13:27:55.633Z,3.90
2023-11-17T13:30:23.429Z,3.86
2023-11-17T13:32:52.593Z,3.84
2023-11-17T13:35:21.158Z,3.90
2023-11-17T13:37:49.560Z,3.99
2023-11-17T13:40:35.526Z,3.97
2023-11-17T13:43:11.440Z,3.93
2023-11-17T13:45:41.198Z,3.93
2023-11-17T13:48:13.457Z,3.91
2023-11-17T13:50:53.892Z,3.85
2023-11-17T13:53:25.412Z,3.75
2023-11-17T13:55:57.118Z,3.77
2023-11-17T13:58:26.247Z,3.81
2023-11-17T14:00:54.528Z,3.80
2023-11-17T14:03:22.132Z,3.80
2023-11-17T14:05:50.424Z,3.82
2023-11-17T14:08:18.442Z,3.84
2023-11-17T14:10:46.586Z,3.83
2023-11-17T14:13:16.952Z,3.79
2023-11-17T14:15:51.845Z,3.86
2023-11-17T14:18:24.345Z,3.95
2023-11-17T14:20:51.908Z,3.95
2023-11-17T14:23:19.508Z,3.95
2023-11-17T14:25:47.058Z,3.96
2023-11-17T14:28:18.462Z,3.92
2023-11-17T14:30:46.743Z,3.86
2023-11-17T14:33:15.846Z,3.78
2023-11-17T14:35:43.649Z,3.73
2023-11-17T14:38:11.169Z,3.77
2023-11-17T14:40:38.705Z,3.75
2023-11-17T14:43:06.417Z,3.69
2023-11-17T14:45:34.231Z,3.65
2023-11-17T14:48:02.017Z,3.62
2023-11-17T14:50:30.951Z,3.60
2023-11-17T14:52:59.707Z,3.58
2023-11-17T14:55:28.963Z,3.63
2023-11-17T14:57:56.638Z,3.72
2023-11-17T15:00:25.470Z,3.77
2023-11-17T15:02:55.807Z,3.77
2023-11-17T15:05:23.518Z,3.76
2023-11-17T15:07:51.343Z,3.78
2023-11-17T15:10:21.960Z,3.78
2023-11-17T15:12:50.545Z,3.76
2023-11-17T15:15:30.178Z,3.86
2023-11-17T15:17:59.630Z,3.96
2023-11-17T15:20:34.424Z,3.97
2023-11-17T15:23:06.490Z,3.98
2023-11-17T15:25:38.111Z,4.02
2023-11-17T15:28:18.504Z,4.06
2023-11-17T15:30:55.971Z,4.07
2023-11-17T15:33:24.124Z,4.08
2023-11-17T15:35:51.767Z,4.16
2023-11-17T15:38:23.760Z,4.24
2023-11-17T15:40:51.478Z,4.26
2023-11-17T15:43:19.699Z,4.25
2023-11-17T15:45:47.881Z,4.23
2023-11-17T15:48:16.003Z,4.25
2023-11-17T15:50:43.614Z,4.27
2023-11-17T15:53:11.139Z,4.29
2023-11-17T15:55:38.920Z,4.27
2023-11-17T15:58:06.927Z,4.31
2023-11-17T16:00:37.108Z,4.34
2023-11-17T16:03:04.791Z,4.35
2023-11-17T16:05:35.032Z,4.36
2023-11-17T16:08:02.709Z,4.37
2023-11-17T16:10:30.250Z,4.39
2023-11-17T16:13:00.871Z,4.38
2023-11-17T16:15:30.103Z,4.32
2023-11-17T16:17:57.847Z,4.29
2023-11-17T16:20:32.554Z,4.31
2023-11-17T16:23:01.715Z,4.31
2023-11-17T16:25:33.899Z,4.27
2023-11-17T16:28:04.372Z,4.28
2023-11-17T16:30:33.040Z,4.28
2023-11-17T16:33:00.577Z,4.26
2023-11-17T16:35:28.893Z,4.25
2023-11-17T16:37:57.013Z,4.23
2023-11-17T16:40:25.560Z,4.27
2023-11-17T16:43:13.581Z,4.34
2023-11-17T16:45:41.287Z,4.34
2023-11-17T16:48:09.076Z,4.32
2023-11-17T16:50:41.469Z,4.33
2023-11-17T16:53:12.430Z,4.34
2023-11-17T16:55:40.113Z,4.34
2023-11-17T16:58:07.994Z,4.34
2023-11-17T17:00:38.003Z,4.39
2023-11-17T17:03:07.315Z,4.44
2023-11-17T17:05:40.958Z,4.45
2023-11-17T17:08:11.420Z,4.45
2023-11-17T17:10:39.187Z,4.43
2023-11-17T17:13:07.085Z,4.42
2023-11-17T17:15:36.341Z,4.42
2023-11-17T17:18:08.211Z,4.41
2023-11-17T17:20:46.414Z,4.47
2023-11-17T17:23:14.121Z,4.49
2023-11-17T17:25:42.348Z,4.48
2023-11-17T17:28:14.037Z,4.45
2023-11-17T17:30:42.965Z,4.42
2023-11-17T17:33:11.792Z,4.37
2023-11-17T17:35:43.785Z,4.34
2023-11-17T17:38:14.843Z,4.36
2023-11-17T17:40:43.818Z,4.41
2023-11-17T17:43:13.469Z,4.42
2023-11-17T17:45:45.263Z,4.45
2023-11-17T17:48:14.509Z,4.44
2023-11-17T17:50:42.448Z,4.41
2023-11-17T17:53:10.002Z,4.37
2023-11-17T17:55:38.178Z,4.35
2023-11-17T17:58:08.265Z,4.40
2023-11-17T18:00:36.204Z,4.47
2023-11-17T18:03:06.649Z,4.50
2023-11-17T18:05:34.640Z,4.51
2023-11-17T18:08:02.213Z,4.50
2023-11-17T18:10:30.799Z,4.50
2023-11-17T18:12:58.549Z,4.49
2023-11-17T18:15:27.462Z,4.49
2023-11-17T18:17:57.621Z,4.53
2023-11-17T18:20:26.230Z,4.57
2023-11-17T18:22:55.397Z,4.59
2023-11-17T18:25:23.832Z,4.61
2023-11-17T18:27:53.648Z,4.61
2023-11-17T18:30:25.049Z,4.63
2023-11-17T18:32:53.817Z,4.64
2023-11-17T18:35:25.048Z,4.61
2023-11-17T18:37:53.606Z,4.63
2023-11-17T18:40:26.630Z,4.66
2023-11-17T18:43:00.071Z,4.62
2023-11-17T18:45:29.754Z,4.61
2023-11-17T18:48:00.371Z,4.59
2023-11-17T18:50:46.099Z,4.57
2023-11-17T18:53:15.350Z,4.54
2023-11-17T18:55:46.249Z,4.56
2023-11-17T18:58:14.760Z,4.62
2023-11-17T19:00:42.314Z,4.63
2023-11-17T19:03:09.951Z,4.64
2023-11-17T19:05:37.816Z,4.66
2023-11-17T19:08:05.718Z,4.65
2023-11-17T19:10:33.233Z,4.65
2023-11-17T19:13:02.108Z,4.70
2023-11-17T19:15:30.243Z,4.78
2023-11-17T19:17:59.442Z,4.80
2023-11-17T19:20:28.165Z,4.83
2023-11-17T19:22:55.889Z,4.84
2023-11-17T19:25:23.605Z,4.84
2023-11-17T19:27:51.377Z,4.84
2023-11-17T19:30:19.668Z,4.83
2023-11-17T19:32:48.589Z,4.88
2023-11-17T19:35:20.196Z,4.92
2023-11-17T19:37:48.456Z,4.91
2023-11-17T19:40:16.563Z,4.92
2023-11-17T19:42:45.269Z,4.92
2023-11-17T19:45:17.773Z,4.90
2023-11-17T19:47:46.018Z,4.83
2023-11-17T19:50:16.042Z,4.78
2023-11-17T19:52:45.040Z,4.86
2023-11-17T19:55:12.763Z,4.93
2023-11-17T19:57:43.695Z,4.95
2023-11-17T20:00:13.494Z,4.92
2023-11-17T20:02:42.837Z,4.92
2023-11-17T20:05:11.687Z,4.91
2023-11-17T20:07:39.527Z,4.89
2023-11-17T20:10:15.450Z,4.87
2023-11-17T20:12:43.152Z,4.92
2023-11-17T20:15:15.529Z,4.97
2023-11-17T20:17:55.081Z,4.96
2023-11-17T20:20:27.128Z,4.93
2023-11-17T20:22:57.432Z,4.93
2023-11-17T20:25:26.312Z,4.94
2023-11-17T20:27:57.187Z,4.93
2023-11-17T20:30:26.707Z,4.93
2023-11-17T20:32:55.885Z,4.98
2023-11-17T20:35:25.292Z,5.02
2023-11-17T20:37:54.189Z,5.00
2023-11-17T20:40:23.043Z,4.99
2023-11-17T20:42:52.172Z,4.99
2023-11-17T20:45:21.825Z,5.00
2023-11-17T20:47:50.022Z,4.99
2023-11-17T20:50:21.465Z,4.95
2023-11-17T20:52:52.380Z,4.99
2023-11-17T20:55:23.930Z,5.05
2023-11-17T20:57:52.576Z,5.03
2023-11-17T21:00:24.320Z,4.98
2023-11-17T21:02:53.822Z,4.99
2023-11-17T21:05:22.385Z,4.99
2023-11-17T21:07:52.262Z,4.96
2023-11-17T21:10:23.498Z,4.94
2023-11-17T21:12:53.398Z,4.99
2023-11-17T21:15:22.808Z,5.04
2023-11-17T21:17:54.033Z,5.04
2023-11-17T21:20:22.126Z,4.95
2023-11-17T21:22:50.409Z,4.95
2023-11-17T21:25:20.039Z,4.85
2023-11-17T21:27:49.904Z,4.77
2023-11-17T21:30:19.101Z,4.74
2023-11-17T21:32:51.187Z,4.78
2023-11-17T21:35:19.808Z,4.78
2023-11-17T21:37:57.638Z,4.74
2023-11-17T21:40:26.303Z,4.72
2023-11-17T21:42:54.073Z,4.71
2023-11-17T21:45:23.589Z,4.71
2023-11-17T21:47:54.199Z,4.71
2023-11-17T21:50:23.469Z,4.76
2023-11-17T21:52:57.507Z,4.83
2023-11-17T21:55:26.034Z,4.83
2023-11-17T21:57:56.535Z,4.80
2023-11-17T22:00:27.793Z,4.78
2023-11-17T22:02:56.251Z,4.75
2023-11-17T22:05:24.131Z,4.73
2023-11-17T22:07:51.749Z,4.68
2023-11-17T22:10:19.693Z,4.71
2023-11-17T22:12:49.345Z,4.76
2023-11-17T22:15:21.322Z,4.75
2023-11-17T22:17:49.857Z,4.70
2023-11-17T22:20:19.491Z,4.69
2023-11-17T22:22:51.549Z,4.67
2023-11-17T22:25:22.410Z,4.65
2023-11-17T22:27:51.253Z,4.60
2023-11-17T22:30:24.473Z,4.64
2023-11-17T22:32:54.620Z,4.67
2023-11-17T22:35:23.639Z,4.64
2023-11-17T22:37:51.920Z,4.62
2023-11-17T22:40:24.091Z,4.58
2023-11-17T22:42:53.434Z,4.55
2023-11-17T22:45:23.412Z,4.49
2023-11-17T22:47:53.490Z,4.52
2023-11-17T22:50:22.797Z,4.57
2023-11-17T22:52:51.030Z,4.54
2023-11-17T22:55:21.291Z,4.49
2023-11-17T22:57:49.859Z,4.46
2023-11-17T23:00:42.016Z,4.44
2023-11-17T23:03:10.656Z,4.41
2023-11-17T23:05:44.784Z,4.39
2023-11-17T23:08:18.379Z,4.43
2023-11-17T23:10:46.735Z,4.47
2023-11-17T23:13:15.425Z,4.43
2023-11-17T23:15:44.905Z,4.39
2023-11-17T23:18:14.727Z,4.38
2023-11-17T23:20:42.930Z,4.37
2023-11-17T23:23:10.389Z,4.35
2023-11-17T23:25:39.096Z,4.32
2023-11-17T23:28:09.844Z,4.35
2023-11-17T23:30:37.586Z,4.37
2023-11-17T23:33:09.280Z,4.34
2023-11-17T23:35:37.372Z,4.33
2023-11-17T23:38:05.719Z,4.30
2023-11-17T23:40:33.251Z,4.27
2023-11-17T23:43:01.817Z,4.24
2023-11-17T23:45:30.778Z,4.21
2023-11-17T23:47:58.754Z,4.26
2023-11-17T23:50:26.580Z,4.27
2023-11-17T23:52:54.530Z,4.23
2023-11-17T23:55:22.970Z,4.20
2023-11-17T23:57:50.697Z,4.16
